Time;durP1;ratioP1;P1;durP2;ratioP2;P2;SDS_P1;SDS_P2;PMS_P1;PMS_P2;Temp;Humidity;BMP_temperature;BMP_pressure;BME280_temperature;BME280_humidity;BME280_pressure;Samples;Min_cycle;Max_cycle;Signal;HPM_P1;HPM_P2
2024/01/01 00:00:53;;;;;;;5.70;2.35;;;;;;;;;;5081528;28;20020;-49
2024/01/01 00:03:18;;;;;;;2.33;1.63;;;;;;;;;;5072326;28;20131;-48
2024/01/01 00:05:43;;;;;;;3.83;1.88;;;;;;;;;;5068859;28;20116;-48
2024/01/01 00:08:09;;;;;;;4.43;1.95;;;;;;;;;;5072787;28;20044;-51
2024/01/01 00:10:34;;;;;;;2.92;1.60;;;;;;;;;;5071082;28;20078;-51
2024/01/01 00:13:00;;;;;;;5.10;2.60;;;;;;;;;;5078392;28;20025;-48
2024/01/01 00:15:25;;;;;;;4.18;2.95;;;;;;;;;;5075631;28;20126;-46
2024/01/01 00:17:51;;;;;;;4.80;2.35;;;;;;;;;;5075750;28;20032;-49
2024/01/01 00:20:16;;;;;;;4.25;2.65;;;;;;;;;;5083760;28;20032;-47
2024/01/01 00:22:42;;;;;;;3.80;1.60;;;;;;;;;;5075059;28;20482;-47
2024/01/01 00:25:08;;;;;;;5.35;3.10;;;;;;;;;;5076662;28;20037;-48
2024/01/01 00:27:34;;;;;;;5.40;2.88;;;;;;;;;;5074233;28;20028;-48
2024/01/01 00:30:00;;;;;;;4.50;2.40;;;;;;;;;;5076779;28;20090;-47
2024/01/01 00:32:26;;;;;;;4.40;4.00;;;;;;;;;;5075333;28;20020;-51
2024/01/01 00:34:51;;;;;;;3.05;2.20;;;;;;;;;;5056493;28;20418;-48
2024/01/01 00:37:17;;;;;;;3.33;2.10;;;;;;;;;;5071784;28;20039;-51
2024/01/01 00:39:42;;;;;;;3.03;1.25;;;;;;;;;;5072598;28;20119;-46
2024/01/01 00:42:08;;;;;;;4.85;1.25;;;;;;;;;;5080528;28;20070;-47
2024/01/01 00:44:33;;;;;;;2.13;1.75;;;;;;;;;;5078151;28;20036;-46
2024/01/01 00:46:59;;;;;;;5.53;1.58;;;;;;;;;;5081812;28;20404;-46
2024/01/01 00:49:24;;;;;;;3.80;1.48;;;;;;;;;;5074768;28;20048;-47
2024/01/01 00:51:50;;;;;;;2.33;0.65;;;;;;;;;;5078849;28;20111;-49
2024/01/01 00:54:15;;;;;;;3.42;1.20;;;;;;;;;;5081322;28;20426;-47
2024/01/01 00:56:42;;;;;;;2.40;1.27;;;;;;;;;;5075168;28;20044;-53
2024/01/01 00:59:08;;;;;;;3.22;1.63;;;;;;;;;;5089446;28;20406;-50
2024/01/01 01:01:33;;;;;;;3.13;1.55;;;;;;;;;;5078701;28;20024;-46
2024/01/01 01:03:58;;;;;;;2.05;1.45;;;;;;;;;;5074072;28;20082;-49
2024/01/01 01:06:24;;;;;;;3.30;1.23;;;;;;;;;;5088487;28;20031;-49
2024/01/01 01:08:49;;;;;;;3.45;1.00;;;;;;;;;;5071859;28;20076;-49
2024/01/01 01:11:15;;;;;;;3.45;0.65;;;;;;;;;;5078180;28;20028;-49
2024/01/01 01:13:40;;;;;;;3.90;1.38;;;;;;;;;;5075931;28;20032;-49
2024/01/01 01:16:06;;;;;;;2.97;1.42;;;;;;;;;;5077838;28;20024;-46
2024/01/01 01:18:31;;;;;;;3.30;2.28;;;;;;;;;;5073333;28;20043;-48
2024/01/01 01:20:56;;;;;;;5.50;3.28;;;;;;;;;;5073169;28;20505;-48
2024/01/01 01:23:22;;;;;;;3.55;2.05;;;;;;;;;;5075615;28;20440;-48
2024/01/01 01:25:47;;;;;;;5.63;1.63;;;;;;;;;;5073499;28;20901;-49
2024/01/01 01:28:21;;;;;;;6.35;1.90;;;;;;;;;;5081241;28;20032;-49
2024/01/01 01:30:46;;;;;;;4.35;1.50;;;;;;;;;;5084223;28;20028;-50
2024/01/01 01:33:12;;;;;;;3.85;3.28;;;;;;;;;;5076164;28;20082;-48
2024/01/01 01:35:37;;;;;;;5.15;2.55;;;;;;;;;;5080437;28;20051;-49
2024/01/01 01:38:03;;;;;;;4.32;1.95;;;;;;;;;;5078412;28;20021;-47
2024/01/01 01:40:28;;;;;;;6.65;2.92;;;;;;;;;;5081355;28;20032;-50
2024/01/01 01:42:54;;;;;;;9.77;4.35;;;;;;;;;;5076466;28;20028;-47
2024/01/01 01:45:19;;;;;;;6.47;3.13;;;;;;;;;;5089316;28;20044;-46
2024/01/01 01:47:45;;;;;;;5.00;2.40;;;;;;;;;;5088857;28;20032;-50
2024/01/01 01:50:11;;;;;;;5.68;2.85;;;;;;;;;;5082582;28;20036;-46
2024/01/01 01:52:38;;;;;;;5.55;3.25;;;;;;;;;;5077468;28;20115;-45
2024/01/01 01:55:04;;;;;;;6.72;4.05;;;;;;;;;;5087239;28;20124;-46
2024/01/01 01:57:29;;;;;;;8.20;5.15;;;;;;;;;;5082415;28;20054;-46
2024/01/01 01:59:55;;;;;;;10.00;6.20;;;;;;;;;;5082204;28;20040;-48
2024/01/01 02:02:23;;;;;;;8.15;4.97;;;;;;;;;;5077514;28;20024;-49
2024/01/01 02:04:49;;;;;;;6.28;3.75;;;;;;;;;;5079856;28;20102;-46
2024/01/01 02:07:15;;;;;;;7.25;4.32;;;;;;;;;;5074030;28;20045;-47
2024/01/01 02:09:41;;;;;;;5.65;3.00;;;;;;;;;;5078869;28;20044;-46
2024/01/01 02:12:08;;;;;;;6.53;3.10;;;;;;;;;;5079332;28;20127;-47
2024/01/01 02:14:34;;;;;;;6.47;3.08;;;;;;;;;;5086964;28;20059;-45
2024/01/01 02:16:59;;;;;;;4.57;2.45;;;;;;;;;;5085209;28;20024;-46
2024/01/01 02:19:26;;;;;;;6.15;2.30;;;;;;;;;;5092336;28;20405;-47
2024/01/01 02:21:53;;;;;;;4.45;2.33;;;;;;;;;;5085340;28;20016;-48
2024/01/01 02:24:20;;;;;;;3.28;2.13;;;;;;;;;;5093641;28;20803;-48
2024/01/01 02:26:46;;;;;;;3.22;1.95;;;;;;;;;;5081646;28;20025;-50
2024/01/01 02:29:12;;;;;;;2.58;2.15;;;;;;;;;;5079285;28;20323;-49
2024/01/01 02:31:38;;;;;;;3.10;1.83;;;;;;;;;;5076273;28;20115;-47
2024/01/01 02:34:03;;;;;;;3.80;1.83;;;;;;;;;;5077738;28;20040;-47
2024/01/01 02:36:29;;;;;;;3.92;1.33;;;;;;;;;;5082975;28;20481;-50
2024/01/01 02:38:55;;;;;;;4.82;1.80;;;;;;;;;;5077460;28;20750;-48
2024/01/01 02:41:21;;;;;;;3.25;1.75;;;;;;;;;;5083306;28;20055;-45
2024/01/01 02:43:46;;;;;;;4.78;1.95;;;;;;;;;;5078954;28;20074;-47
2024/01/01 02:46:12;;;;;;;3.05;1.10;;;;;;;;;;5081128;28;20024;-46
2024/01/01 02:48:37;;;;;;;2.42;1.27;;;;;;;;;;5077194;28;20105;-48
2024/01/01 02:51:03;;;;;;;5.18;1.10;;;;;;;;;;5073872;28;20490;-48
2024/01/01 02:53:29;;;;;;;2.42;1.52;;;;;;;;;;5076098;28;20635;-48
2024/01/01 02:55:54;;;;;;;3.90;1.25;;;;;;;;;;5084481;28;20033;-45
2024/01/01 02:58:20;;;;;;;4.20;1.58;;;;;;;;;;5075463;28;20495;-48
2024/01/01 03:00:47;;;;;;;2.42;1.15;;;;;;;;;;5076390;28;20016;-47
2024/01/01 03:03:14;;;;;;;1.85;1.25;;;;;;;;;;5091017;28;20020;-50
2024/01/01 03:05:40;;;;;;;2.53;1.20;;;;;;;;;;5084314;28;20472;-47
2024/01/01 03:08:07;;;;;;;4.63;1.10;;;;;;;;;;5089955;28;20028;-51
2024/01/01 03:10:32;;;;;;;6.63;1.00;;;;;;;;;;5077779;28;20027;-49
2024/01/01 03:12:57;;;;;;;2.03;0.80;;;;;;;;;;5076132;28;20099;-48
2024/01/01 03:15:23;;;;;;;2.42;0.90;;;;;;;;;;5077957;28;20415;-47
2024/01/01 03:17:48;;;;;;;1.90;1.17;;;;;;;;;;5076787;28;20024;-46
2024/01/01 03:20:14;;;;;;;2.80;1.15;;;;;;;;;;5075208;28;20032;-47
2024/01/01 03:22:39;;;;;;;3.10;0.98;;;;;;;;;;5073959;28;21492;-51
2024/01/01 03:25:07;;;;;;;2.10;0.98;;;;;;;;;;5078369;28;20127;-48
2024/01/01 03:27:32;;;;;;;4.05;1.25;;;;;;;;;;5081060;28;20051;-48
2024/01/01 03:29:58;;;;;;;1.98;0.80;;;;;;;;;;5080479;28;20432;-47
2024/01/01 03:32:23;;;;;;;2.42;0.85;;;;;;;;;;5075386;28;20028;-49
2024/01/01 03:34:48;;;;;;;4.38;1.60;;;;;;;;;;5075979;28;20513;-50
2024/01/01 03:37:14;;;;;;;4.40;1.75;;;;;;;;;;5076839;28;20491;-46
2024/01/01 03:39:40;;;;;;;9.18;4.07;;;;;;;;;;5069977;28;20423;-48
2024/01/01 03:42:05;;;;;;;6.07;4.53;;;;;;;;;;5074978;28;20039;-48
2024/01/01 03:44:30;;;;;;;8.75;5.10;;;;;;;;;;5090418;28;20551;-50
2024/01/01 03:46:56;;;;;;;5.70;3.42;;;;;;;;;;5084267;28;20016;-49
2024/01/01 03:49:21;;;;;;;9.18;4.25;;;;;;;;;;5081378;28;20029;-49
2024/01/01 03:51:47;;;;;;;6.68;3.55;;;;;;;;;;5081281;28;20028;-48
2024/01/01 03:54:12;;;;;;;8.10;3.25;;;;;;;;;;5074509;28;20110;-46
2024/01/01 03:56:38;;;;;;;4.25;2.50;;;;;;;;;;5078935;28;20020;-47
2024/01/01 03:59:03;;;;;;;6.18;3.13;;;;;;;;;;5077053;28;20067;-49
2024/01/01 04:01:31;;;;;;;3.70;2.97;;;;;;;;;;5075535;28;20028;-47
2024/01/01 04:04:02;;;;;;;5.07;1.77;;;;;;;;;;5081513;28;20021;-46
2024/01/01 04:06:27;;;;;;;2.80;1.77;;;;;;;;;;5075448;28;20108;-47
2024/01/01 04:08:53;;;;;;;4.38;3.67;;;;;;;;;;5075268;28;20052;-50
2024/01/01 04:11:18;;;;;;;8.32;3.05;;;;;;;;;;5073872;28;20497;-48
2024/01/01 04:13:43;;;;;;;5.45;3.08;;;;;;;;;;5072295;28;20564;-46
2024/01/01 04:16:09;;;;;;;5.45;3.22;;;;;;;;;;5075002;28;20399;-48
2024/01/01 04:18:34;;;;;;;7.75;3.45;;;;;;;;;;5084170;28;20062;-46
2024/01/01 04:21:00;;;;;;;3.58;1.88;;;;;;;;;;5081231;28;20020;-46
2024/01/01 04:23:25;;;;;;;6.10;3.17;;;;;;;;;;5074401;28;20040;-47
2024/01/01 04:25:51;;;;;;;3.15;2.85;;;;;;;;;;5071969;28;20022;-46
2024/01/01 04:28:16;;;;;;;4.63;2.42;;;;;;;;;;5076449;28;20037;-46
2024/01/01 04:30:41;;;;;;;4.03;1.98;;;;;;;;;;5071522;28;20098;-48
2024/01/01 04:33:07;;;;;;;3.95;1.88;;;;;;;;;;5064462;28;20459;-45
2024/01/01 04:35:32;;;;;;;2.97;1.70;;;;;;;;;;5076656;28;20043;-45
2024/01/01 04:37:58;;;;;;;2.45;1.50;;;;;;;;;;5074514;28;20020;-48
2024/01/01 04:40:23;;;;;;;3.53;1.65;;;;;;;;;;5089725;28;20042;-46
2024/01/01 04:42:50;;;;;;;4.68;2.65;;;;;;;;;;5074805;28;20054;-45
2024/01/01 04:45:15;;;;;;;2.55;1.40;;;;;;;;;;5077800;28;20038;-48
2024/01/01 04:47:41;;;;;;;3.40;1.38;;;;;;;;;;5081428;28;20109;-47
2024/01/01 04:50:08;;;;;;;4.90;1.88;;;;;;;;;;5080250;28;20071;-50
2024/01/01 04:52:33;;;;;;;3.08;1.45;;;;;;;;;;5070855;28;20056;-49
2024/01/01 04:54:59;;;;;;;2.53;1.27;;;;;;;;;;5074030;28;20068;-49
2024/01/01 04:57:24;;;;;;;2.10;1.38;;;;;;;;;;5077957;28;20032;-48
2024/01/01 04:59:50;;;;;;;3.88;1.55;;;;;;;;;;5073711;28;20037;-46
2024/01/01 05:02:15;;;;;;;3.67;1.25;;;;;;;;;;5064259;28;20025;-46
2024/01/01 05:04:41;;;;;;;2.90;1.67;;;;;;;;;;5072897;28;20028;-49
2024/01/01 05:07:06;;;;;;;3.05;2.08;;;;;;;;;;5073080;28;20040;-46
2024/01/01 05:09:32;;;;;;;3.05;2.03;;;;;;;;;;5074620;28;20036;-46
2024/01/01 05:11:57;;;;;;;4.18;2.47;;;;;;;;;;5089580;28;20036;-48
2024/01/01 05:14:22;;;;;;;5.75;3.03;;;;;;;;;;5077779;28;20043;-45
2024/01/01 05:16:48;;;;;;;5.90;2.28;;;;;;;;;;5058274;28;20024;-50
2024/01/01 05:19:14;;;;;;;4.28;2.78;;;;;;;;;;5091246;28;20032;-48
2024/01/01 05:21:39;;;;;;;3.00;2.10;;;;;;;;;;5074005;28;20032;-50
2024/01/01 05:24:05;;;;;;;3.67;2.20;;;;;;;;;;5081765;28;20505;-47
2024/01/01 05:26:30;;;;;;;5.28;2.63;;;;;;;;;;5078430;28;20063;-47
2024/01/01 05:28:56;;;;;;;5.75;3.30;;;;;;;;;;5075584;28;20024;-46
2024/01/01 05:31:22;;;;;;;5.55;3.35;;;;;;;;;;5076255;28;20101;-49
2024/01/01 05:33:48;;;;;;;5.90;2.90;;;;;;;;;;5081622;28;20036;-46
2024/01/01 05:36:14;;;;;;;4.45;2.92;;;;;;;;;;5081475;28;20024;-48
2024/01/01 05:38:39;;;;;;;5.47;4.18;;;;;;;;;;5073243;28;20062;-46
2024/01/01 05:41:05;;;;;;;3.60;2.00;;;;;;;;;;5077772;28;20440;-48
2024/01/01 05:43:31;;;;;;;4.80;2.90;;;;;;;;;;5074802;28;20036;-45
2024/01/01 05:45:57;;;;;;;4.00;2.22;;;;;;;;;;5073174;28;20044;-48
2024/01/01 05:48:22;;;;;;;3.80;1.50;;;;;;;;;;5073277;28;20075;-47
2024/01/01 05:50:48;;;;;;;3.33;1.48;;;;;;;;;;5080925;28;20036;-46
2024/01/01 05:53:13;;;;;;;2.95;1.52;;;;;;;;;;5072360;28;20578;-45
2024/01/01 05:55:39;;;;;;;3.22;2.20;;;;;;;;;;5077661;28;20467;-45
2024/01/01 05:58:04;;;;;;;3.67;1.98;;;;;;;;;;5086504;28;20489;-48
2024/01/01 06:00:30;;;;;;;3.00;2.08;;;;;;;;;;5075583;28;20042;-45
2024/01/01 06:02:55;;;;;;;2.22;0.93;;;;;;;;;;5076059;28;20044;-46
2024/01/01 06:05:20;;;;;;;4.00;1.88;;;;;;;;;;5074650;28;20041;-45
2024/01/01 06:07:46;;;;;;;4.68;1.23;;;;;;;;;;5090803;28;20021;-46
2024/01/01 06:10:11;;;;;;;3.10;2.00;;;;;;;;;;5075878;28;20102;-48
2024/01/01 06:12:37;;;;;;;2.55;1.65;;;;;;;;;;5075319;28;20794;-47
2024/01/01 06:15:03;;;;;;;3.33;1.67;;;;;;;;;;5057945;28;20618;-46
2024/01/01 06:17:28;;;;;;;4.82;2.28;;;;;;;;;;5076711;28;20024;-49
2024/01/01 06:19:56;;;;;;;5.03;2.70;;;;;;;;;;5079199;28;20033;-47
2024/01/01 06:22:22;;;;;;;4.00;2.75;;;;;;;;;;5077081;28;20115;-49
2024/01/01 06:24:47;;;;;;;3.70;2.65;;;;;;;;;;5075739;28;20060;-47
2024/01/01 06:27:12;;;;;;;4.63;1.25;;;;;;;;;;5082440;28;20059;-47
2024/01/01 06:29:38;;;;;;;2.95;1.45;;;;;;;;;;5081386;28;20086;-50
2024/01/01 06:32:04;;;;;;;2.85;1.67;;;;;;;;;;5082241;28;20034;-47
2024/01/01 06:34:29;;;;;;;2.25;1.17;;;;;;;;;;5076595;28;20065;-46
2024/01/01 06:36:54;;;;;;;4.13;2.55;;;;;;;;;;5079282;28;20028;-48
2024/01/01 06:39:20;;;;;;;5.05;1.65;;;;;;;;;;5077705;28;20132;-47
2024/01/01 06:41:45;;;;;;;2.78;1.20;;;;;;;;;;5089820;28;20043;-45
2024/01/01 06:44:11;;;;;;;3.83;2.42;;;;;;;;;;5083942;28;20072;-45
2024/01/01 06:46:36;;;;;;;7.40;2.28;;;;;;;;;;5082433;28;20509;-48
2024/01/01 06:49:01;;;;;;;3.08;1.52;;;;;;;;;;5077916;28;20124;-48
2024/01/01 06:51:27;;;;;;;3.53;1.70;;;;;;;;;;5077294;28;20097;-46
2024/01/01 06:53:52;;;;;;;4.03;1.83;;;;;;;;;;5082820;28;20056;-46
2024/01/01 06:56:18;;;;;;;3.03;2.33;;;;;;;;;;5077481;28;20024;-49
2024/01/01 06:58:43;;;;;;;3.17;1.90;;;;;;;;;;5074025;28;20049;-48
2024/01/01 07:01:08;;;;;;;3.20;2.00;;;;;;;;;;5074823;28;20033;-45
2024/01/01 07:03:34;;;;;;;2.55;1.70;;;;;;;;;;5077268;28;20517;-46
2024/01/01 07:05:59;;;;;;;4.93;3.05;;;;;;;;;;5075795;28;20024;-47
2024/01/01 07:08:25;;;;;;;3.42;1.83;;;;;;;;;;5077877;28;20481;-49
2024/01/01 07:10:50;;;;;;;5.53;3.00;;;;;;;;;;5079952;28;20024;-46
2024/01/01 07:13:16;;;;;;;4.53;2.83;;;;;;;;;;5075275;28;20068;-48
2024/01/01 07:15:42;;;;;;;5.38;2.97;;;;;;;;;;5076250;28;20393;-47
2024/01/01 07:18:08;;;;;;;5.80;2.65;;;;;;;;;;5075355;28;20031;-48
2024/01/01 07:20:34;;;;;;;2.72;2.22;;;;;;;;;;5091454;28;20485;-46
2024/01/01 07:23:00;;;;;;;3.33;2.00;;;;;;;;;;5075720;28;20032;-45
2024/01/01 07:25:26;;;;;;;4.50;2.20;;;;;;;;;;5077254;28;20106;-47
2024/01/01 07:27:51;;;;;;;8.20;3.92;;;;;;;;;;5076687;28;20017;-47
2024/01/01 07:30:17;;;;;;;6.13;3.85;;;;;;;;;;5073518;28;20032;-45
2024/01/01 07:32:42;;;;;;;4.63;2.95;;;;;;;;;;5067260;28;20067;-46
2024/01/01 07:35:08;;;;;;;6.57;3.88;;;;;;;;;;5075203;28;20085;-46
2024/01/01 07:37:34;;;;;;;6.38;3.75;;;;;;;;;;5073490;28;20111;-45
2024/01/01 07:40:00;;;;;;;4.45;3.58;;;;;;;;;;5074848;28;20107;-46
2024/01/01 07:42:26;;;;;;;5.93;4.20;;;;;;;;;;5061889;28;20386;-45
2024/01/01 07:44:52;;;;;;;6.20;3.35;;;;;;;;;;5080821;28;20048;-48
2024/01/01 07:47:19;;;;;;;5.70;3.17;;;;;;;;;;5080240;28;20534;-47
2024/01/01 07:49:45;;;;;;;5.07;3.28;;;;;;;;;;5078973;28;20040;-47
2024/01/01 07:52:12;;;;;;;4.85;3.35;;;;;;;;;;5076574;28;20036;-46
2024/01/01 07:54:39;;;;;;;5.93;2.92;;;;;;;;;;5075002;28;20032;-47
2024/01/01 07:57:06;;;;;;;6.13;3.33;;;;;;;;;;5077279;28;20020;-46
2024/01/01 07:59:31;;;;;;;4.40;2.47;;;;;;;;;;5074225;28;20031;-49
2024/01/01 08:01:57;;;;;;;3.63;2.13;;;;;;;;;;5075666;28;20016;-48
2024/01/01 08:04:22;;;;;;;5.75;2.28;;;;;;;;;;5074294;28;20573;-45
2024/01/01 08:06:47;;;;;;;3.35;2.33;;;;;;;;;;5085427;28;20465;-46
2024/01/01 08:09:13;;;;;;;3.65;2.08;;;;;;;;;;5075958;28;20516;-46
2024/01/01 08:11:39;;;;;;;4.22;1.95;;;;;;;;;;5076734;28;20493;-47
2024/01/01 08:14:04;;;;;;;4.63;4.22;;;;;;;;;;5073947;28;20506;-47
2024/01/01 08:16:33;;;;;;;6.30;2.75;;;;;;;;;;5077712;28;20017;-45
2024/01/01 08:18:59;;;;;;;4.57;2.50;;;;;;;;;;5076629;28;20516;-47
2024/01/01 08:21:24;;;;;;;5.53;2.55;;;;;;;;;;5070887;28;20024;-49
2024/01/01 08:23:49;;;;;;;8.20;3.88;;;;;;;;;;5082759;28;20089;-48
2024/01/01 08:26:15;;;;;;;9.82;3.72;;;;;;;;;;5083803;28;20040;-46
2024/01/01 08:28:40;;;;;;;4.22;2.78;;;;;;;;;;5074209;27;20123;-48
2024/01/01 08:31:08;;;;;;;7.32;2.67;;;;;;;;;;5075176;28;20039;-46
2024/01/01 08:33:33;;;;;;;3.72;1.83;;;;;;;;;;5072071;28;20047;-47
2024/01/01 08:35:58;;;;;;;4.68;3.28;;;;;;;;;;5077465;28;20411;-45
2024/01/01 08:38:24;;;;;;;6.78;3.92;;;;;;;;;;5081469;28;20055;-45
2024/01/01 08:40:51;;;;;;;7.40;4.55;;;;;;;;;;5073189;28;20071;-47
2024/01/01 08:43:16;;;;;;;9.68;5.40;;;;;;;;;;5081299;28;20036;-45
2024/01/01 08:45:42;;;;;;;8.88;6.03;;;;;;;;;;5073710;28;20032;-48
2024/01/01 08:48:07;;;;;;;8.32;5.82;;;;;;;;;;5076173;28;20024;-45
2024/01/01 08:50:33;;;;;;;9.02;3.35;;;;;;;;;;5076174;28;20032;-46
2024/01/01 08:52:58;;;;;;;4.30;2.58;;;;;;;;;;5065116;28;20041;-47
2024/01/01 08:55:24;;;;;;;4.15;2.67;;;;;;;;;;5073107;28;20855;-49
2024/01/01 08:57:49;;;;;;;4.95;3.60;;;;;;;;;;5082038;28;20064;-47
2024/01/01 09:00:16;;;;;;;5.18;3.30;;;;;;;;;;5074866;28;20131;-47
2024/01/01 09:02:42;;;;;;;6.10;2.28;;;;;;;;;;5058686;28;20032;-49
2024/01/01 09:05:08;;;;;;;5.80;2.92;;;;;;;;;;5075408;28;20483;-45
2024/01/01 09:07:33;;;;;;;4.85;3.33;;;;;;;;;;5078217;28;20044;-50
2024/01/01 09:10:00;;;;;;;5.80;4.10;;;;;;;;;;5090268;28;20089;-47
2024/01/01 09:12:26;;;;;;;10.07;8.00;;;;;;;;;;5071816;28;20031;-46
2024/01/01 09:14:52;;;;;;;8.40;6.63;;;;;;;;;;5075616;28;20123;-48
2024/01/01 09:17:18;;;;;;;8.73;6.30;;;;;;;;;;5075732;28;20021;-48
2024/01/01 09:19:44;;;;;;;7.80;6.43;;;;;;;;;;5076321;28;20051;-47
2024/01/01 09:22:09;;;;;;;6.45;5.25;;;;;;;;;;5074952;28;20028;-49
2024/01/01 09:24:35;;;;;;;4.25;3.40;;;;;;;;;;5073093;28;20675;-47
2024/01/01 09:27:01;;;;;;;5.97;3.25;;;;;;;;;;5072576;28;20040;-46
2024/01/01 09:29:27;;;;;;;4.57;2.53;;;;;;;;;;5063319;28;20041;-46
2024/01/01 09:31:52;;;;;;;4.47;2.75;;;;;;;;;;5077978;28;20028;-51
2024/01/01 09:34:18;;;;;;;3.30;2.15;;;;;;;;;;5073921;28;20120;-47
2024/01/01 09:36:43;;;;;;;4.70;3.97;;;;;;;;;;5079136;28;20028;-45
2024/01/01 09:39:08;;;;;;;4.45;2.45;;;;;;;;;;5056329;28;20105;-48
2024/01/01 09:41:34;;;;;;;6.05;3.30;;;;;;;;;;5074664;28;20024;-47
2024/01/01 09:44:01;;;;;;;6.68;3.45;;;;;;;;;;5058373;28;20037;-45
2024/01/01 09:46:32;;;;;;;6.57;3.28;;;;;;;;;;5081469;28;20021;-48
2024/01/01 09:49:01;;;;;;;4.32;3.30;;;;;;;;;;5082849;28;20528;-47
2024/01/01 09:51:26;;;;;;;7.38;3.50;;;;;;;;;;5080049;28;20031;-49
2024/01/01 09:53:52;;;;;;;5.40;2.78;;;;;;;;;;5078868;28;20123;-45
2024/01/01 09:56:18;;;;;;;3.33;2.75;;;;;;;;;;5082881;28;20038;-48
2024/01/01 09:58:45;;;;;;;5.68;1.95;;;;;;;;;;5073331;28;20035;-48
2024/01/01 10:01:15;;;;;;;2.58;1.13;;;;;;;;;;5078730;28;20405;-47
2024/01/01 10:03:41;;;;;;;6.30;2.80;;;;;;;;;;5092614;28;20025;-47
2024/01/01 10:06:08;;;;;;;5.00;3.67;;;;;;;;;;5085343;28;20459;-48
2024/01/01 10:08:34;;;;;;;4.13;2.25;;;;;;;;;;5076006;28;20036;-49
2024/01/01 10:11:19;;;;;;;4.55;3.03;;;;;;;;;;5079585;28;20021;-52
2024/01/01 10:13:45;;;;;;;3.97;2.45;;;;;;;;;;5078403;28;20036;-48
2024/01/01 10:16:10;;;;;;;4.28;2.88;;;;;;;;;;5077444;28;20035;-48
2024/01/01 10:18:36;;;;;;;4.68;2.60;;;;;;;;;;5083656;28;20040;-48
2024/01/01 10:21:13;;;;;;;3.42;2.47;;;;;;;;;;5076607;28;20040;-49
2024/01/01 10:23:39;;;;;;;3.00;2.15;;;;;;;;;;5084501;28;20039;-49
2024/01/01 10:26:11;;;;;;;3.83;2.15;;;;;;;;;;5053999;28;20033;-47
2024/01/01 10:28:37;;;;;;;6.72;1.98;;;;;;;;;;5090180;28;20493;-49
2024/01/01 10:31:03;;;;;;;4.60;2.83;;;;;;;;;;5080873;28;20439;-50
2024/01/01 10:33:32;;;;;;;3.22;1.88;;;;;;;;;;5077893;28;20547;-48
2024/01/01 10:36:04;;;;;;;3.55;1.83;;;;;;;;;;5079357;28;20501;-50
2024/01/01 10:38:31;;;;;;;3.72;2.30;;;;;;;;;;5074560;28;20499;-47
2024/01/01 10:40:58;;;;;;;7.97;3.05;;;;;;;;;;5076702;28;20073;-47
2024/01/01 10:43:25;;;;;;;4.60;2.60;;;;;;;;;;5078882;28;20048;-48
2024/01/01 10:45:54;;;;;;;4.53;2.97;;;;;;;;;;5075767;28;20013;-50
2024/01/01 10:48:22;;;;;;;5.95;2.92;;;;;;;;;;5076315;28;20028;-48
2024/01/01 10:51:16;;;;;;;8.35;2.72;;;;;;;;;;5072195;28;20087;-48
2024/01/01 10:53:44;;;;;;;5.28;2.55;;;;;;;;;;5075997;28;20041;-51
2024/01/01 10:56:27;;;;;;;4.53;1.67;;;;;;;;;;5072975;28;20029;-49
2024/01/01 10:59:10;;;;;;;4.88;2.70;;;;;;;;;;5070381;28;20040;-49
2024/01/01 11:01:37;;;;;;;5.43;2.17;;;;;;;;;;5078927;28;20021;-47
2024/01/01 11:04:04;;;;;;;5.43;1.95;;;;;;;;;;5081473;28;20036;-48
2024/01/01 11:06:35;;;;;;;3.47;1.95;;;;;;;;;;5085602;28;20020;-46
2024/01/01 11:09:19;;;;;;;4.15;1.50;;;;;;;;;;5077743;28;20401;-48
2024/01/01 11:11:52;;;;;;;3.10;1.73;;;;;;;;;;5081652;28;20389;-51
2024/01/01 11:14:25;;;;;;;6.75;1.95;;;;;;;;;;5058213;28;20021;-51
2024/01/01 11:16:53;;;;;;;4.30;2.00;;;;;;;;;;5075904;28;20028;-48
2024/01/01 11:19:41;;;;;;;3.83;1.55;;;;;;;;;;5073606;28;20040;-46
2024/01/01 11:22:31;;;;;;;6.40;4.13;;;;;;;;;;5072070;28;20038;-51
2024/01/01 11:25:00;;;;;;;2.72;1.20;;;;;;;;;;5075704;28;20096;-48
2024/01/01 11:27:31;;;;;;;3.45;1.83;;;;;;;;;;5076000;28;20088;-47
2024/01/01 11:30:04;;;;;;;6.78;2.05;;;;;;;;;;5066545;28;20067;-47
2024/01/01 11:32:30;;;;;;;3.63;2.15;;;;;;;;;;5077921;28;20059;-47
2024/01/01 11:35:12;;;;;;;3.17;2.20;;;;;;;;;;5083405;28;20056;-47
2024/01/01 11:37:41;;;;;;;3.53;0.80;;;;;;;;;;5083533;28;20028;-48
2024/01/01 11:40:07;;;;;;;3.42;0.98;;;;;;;;;;5077329;28;20550;-53
2024/01/01 11:42:34;;;;;;;4.10;1.65;;;;;;;;;;5076337;28;20034;-48
2024/01/01 11:45:07;;;;;;;2.95;1.42;;;;;;;;;;5076887;28;20028;-49
2024/01/01 11:47:33;;;;;;;4.43;1.77;;;;;;;;;;5077617;28;20111;-48
2024/01/01 11:50:00;;;;;;;3.17;1.42;;;;;;;;;;5083088;28;20066;-48
2024/01/01 11:52:26;;;;;;;6.53;4.20;;;;;;;;;;5085582;28;20021;-48
2024/01/01 11:54:51;;;;;;;2.60;1.52;;;;;;;;;;5076756;28;20039;-48
2024/01/01 11:57:17;;;;;;;4.55;2.20;;;;;;;;;;5080637;28;20029;-45
2024/01/01 11:59:42;;;;;;;5.20;2.63;;;;;;;;;;5078942;28;20036;-47
2024/01/01 12:02:10;;;;;;;2.20;1.02;;;;;;;;;;5077862;28;20047;-51
2024/01/01 12:04:36;;;;;;;1.98;0.85;;;;;;;;;;5074375;28;20078;-47
2024/01/01 12:07:01;;;;;;;1.88;0.65;;;;;;;;;;5078080;28;20036;-45
2024/01/01 12:09:27;;;;;;;4.50;1.17;;;;;;;;;;5074940;28;20045;-46
2024/01/01 12:12:01;;;;;;;6.45;2.97;;;;;;;;;;5073168;28;20032;-51
2024/01/01 12:14:27;;;;;;;5.28;2.50;;;;;;;;;;5078574;28;20043;-50
2024/01/01 12:16:54;;;;;;;6.13;2.70;;;;;;;;;;5074488;28;20104;-48
2024/01/01 12:19:22;;;;;;;5.30;2.75;;;;;;;;;;5074949;28;20110;-47
2024/01/01 12:21:49;;;;;;;4.20;2.65;;;;;;;;;;5087273;28;20036;-49
2024/01/01 12:24:19;;;;;;;5.82;2.92;;;;;;;;;;5075600;28;20028;-48
2024/01/01 12:26:46;;;;;;;3.38;1.05;;;;;;;;;;5075588;28;20044;-45
2024/01/01 12:29:20;;;;;;;5.53;3.17;;;;;;;;;;5075240;28;20043;-50
2024/01/01 12:31:47;;;;;;;1.88;0.65;;;;;;;;;;5083126;28;20028;-50
2024/01/01 12:34:21;;;;;;;2.28;0.73;;;;;;;;;;5069571;28;20033;-49
2024/01/01 12:36:48;;;;;;;2.63;1.60;;;;;;;;;;5082196;28;20020;-48
2024/01/01 12:39:20;;;;;;;1.13;0.40;;;;;;;;;;5078844;28;20067;-46
2024/01/01 12:41:45;;;;;;;1.73;0.47;;;;;;;;;;5072240;28;20035;-48
2024/01/01 12:44:11;;;;;;;1.33;0.70;;;;;;;;;;5074375;28;20559;-46
2024/01/01 12:46:36;;;;;;;3.55;0.40;;;;;;;;;;5070213;28;20066;-50
2024/01/01 12:49:03;;;;;;;2.60;0.82;;;;;;;;;;5075460;28;20055;-48
2024/01/01 12:51:29;;;;;;;1.70;1.25;;;;;;;;;;5073665;28;20040;-48
2024/01/01 12:53:57;;;;;;;0.82;0.32;;;;;;;;;;5071054;28;20041;-53
2024/01/01 12:56:26;;;;;;;1.20;0.40;;;;;;;;;;5076338;28;20532;-52
2024/01/01 12:58:51;;;;;;;2.15;0.32;;;;;;;;;;5074899;28;20060;-50
2024/01/01 13:01:17;;;;;;;2.10;0.70;;;;;;;;;;5072916;28;20044;-49
2024/01/01 13:03:44;;;;;;;3.03;0.40;;;;;;;;;;5073379;28;20040;-51
2024/01/01 13:06:17;;;;;;;0.63;0.20;;;;;;;;;;5077435;28;20525;-50
2024/01/01 13:08:43;;;;;;;1.08;0.65;;;;;;;;;;5073068;28;20036;-50
2024/01/01 13:11:11;;;;;;;2.92;0.63;;;;;;;;;;5072993;28;20021;-47
2024/01/01 13:13:37;;;;;;;2.13;0.40;;;;;;;;;;5078302;28;20032;-49
2024/01/01 13:16:03;;;;;;;2.15;1.15;;;;;;;;;;5077580;28;20436;-46
2024/01/01 13:18:29;;;;;;;2.50;1.25;;;;;;;;;;5072808;28;20047;-48
2024/01/01 13:20:54;;;;;;;1.02;0.63;;;;;;;;;;5074599;28;20529;-50
2024/01/01 13:23:20;;;;;;;2.40;0.50;;;;;;;;;;5078837;28;20536;-51
2024/01/01 13:25:47;;;;;;;2.50;0.50;;;;;;;;;;5084607;28;20024;-46
2024/01/01 13:28:13;;;;;;;2.08;0.63;;;;;;;;;;5081394;28;20539;-49
2024/01/01 13:30:41;;;;;;;1.75;0.85;;;;;;;;;;5079348;28;20437;-48
2024/01/01 13:33:07;;;;;;;2.08;0.52;;;;;;;;;;5083624;28;20052;-51
2024/01/01 13:35:35;;;;;;;2.05;0.50;;;;;;;;;;5073569;28;20048;-51
2024/01/01 13:38:00;;;;;;;2.85;1.25;;;;;;;;;;5080812;28;20089;-50
2024/01/01 13:40:27;;;;;;;3.35;0.55;;;;;;;;;;5056291;28;20100;-48
2024/01/01 13:42:53;;;;;;;1.00;0.57;;;;;;;;;;5081267;28;20032;-53
2024/01/01 13:45:18;;;;;;;1.50;0.88;;;;;;;;;;5094019;28;20574;-47
2024/01/01 13:47:43;;;;;;;1.75;0.57;;;;;;;;;;5087650;28;20056;-47
2024/01/01 13:50:09;;;;;;;2.13;0.57;;;;;;;;;;5080103;28;20044;-47
2024/01/01 13:52:35;;;;;;;1.75;1.38;;;;;;;;;;5079563;28;20058;-49
2024/01/01 13:55:01;;;;;;;3.45;0.80;;;;;;;;;;5080878;28;20057;-45
2024/01/01 13:57:27;;;;;;;3.28;2.75;;;;;;;;;;5085013;28;20028;-49
2024/01/01 13:59:53;;;;;;;2.33;0.63;;;;;;;;;;5077068;28;20032;-51
2024/01/01 14:02:19;;;;;;;2.65;1.30;;;;;;;;;;5082769;28;20035;-51
2024/01/01 14:04:44;;;;;;;1.83;0.88;;;;;;;;;;5085718;28;20098;-48
2024/01/01 14:07:11;;;;;;;2.70;0.75;;;;;;;;;;5080508;28;20040;-48
2024/01/01 14:09:37;;;;;;;1.77;0.73;;;;;;;;;;5085100;28;20036;-51
2024/01/01 14:12:03;;;;;;;2.50;1.25;;;;;;;;;;5086077;28;20031;-48
2024/01/01 14:14:29;;;;;;;3.58;1.25;;;;;;;;;;5082307;28;20036;-49
2024/01/01 14:16:54;;;;;;;2.45;1.35;;;;;;;;;;5069704;28;20058;-50
2024/01/01 14:19:20;;;;;;;4.50;2.30;;;;;;;;;;5081049;28;20040;-49
2024/01/01 14:21:45;;;;;;;2.22;0.77;;;;;;;;;;5081969;28;20024;-48
2024/01/01 14:24:10;;;;;;;5.05;1.08;;;;;;;;;;5078456;28;20033;-48
2024/01/01 14:26:36;;;;;;;1.15;0.80;;;;;;;;;;5088622;28;20063;-48
2024/01/01 14:29:02;;;;;;;3.92;0.90;;;;;;;;;;5088729;28;20127;-46
2024/01/01 14:31:28;;;;;;;1.02;0.50;;;;;;;;;;5090276;28;20032;-50
2024/01/01 14:33:53;;;;;;;2.50;0.73;;;;;;;;;;5084691;28;20143;-50
2024/01/01 14:36:19;;;;;;;2.75;0.95;;;;;;;;;;5076590;28;20037;-49
2024/01/01 14:38:44;;;;;;;1.38;0.50;;;;;;;;;;5077002;28;20505;-49